Flight Track Log - Related Links

Times and Time Zones

All times are in EDT time to prevent confusion due to time zone crossing. See the FIV521 flight status page for this flight to view local times or setup timezone preferences in your user account.

Time Position Orientation Groundspeed Altitude Reporting Facility
EDT Latitude Longitude Course Direction KTS MPH feet Rate Location/Type
Sun 14:11:39 27.1744 -80.1908 North 151 174 1,800  Level Miami Center
Sun 14:12:39 27.2117 -80.2058 340° North 168 193 3,900 2,500 Climbing Miami Center
Sun 14:13:39 27.2375 -80.2628 297° West 153 176 6,800 2,350 Climbing Miami Center
Sun 14:14:39 27.3053 -80.3019 333° Northwest 227 261 8,600 2,050 Climbing Miami Center
Sun 14:15:39 27.3800 -80.3278 343° North 264 304 10,900 2,150 Climbing Miami Center
Sun 14:16:39 27.4608 -80.3511 346° North 291 335 12,900 1,950 Climbing Miami Center
Sun 14:17:00 27.5981 -80.5000 North  Level FlightAware
Sun 14:17:39 27.5383 -80.3442 North 304 350 14,800  Level Miami Center
Sun 14:18:39 27.6336 -80.2883 27° Northeast 329 379 16,000 600 Climbing Miami Center
Sun 14:19:39 27.7308 -80.2375 25° Northeast 363 418 16,000 50 Level Miami Center
Sun 14:20:39 27.8281 -80.1864 25° Northeast 375 432 16,100 950 Climbing Miami Center
Sun 14:21:39 27.9106 -80.1369 28° Northeast 376 433 17,900 2,000 Climbing Miami Center
Sun 14:22:39 28.0011 -80.0925 23° Northeast 363 418 20,100 2,500 Climbing Miami Center
Sun 14:23:39 28.0964 -80.0389 26° Northeast 344 396 22,900 2,350 Climbing Miami Center
Sun 14:24:39 28.1808 -79.9894 27° Northeast 344 396 24,800 1,700 Climbing Miami Center
Sun 14:25:39 28.2675 -79.9375 28° Northeast 344 396 26,300 1,500 Climbing Miami Center
Sun 14:26:39 28.3486 -79.8525 43° Northeast 363 418 27,800 1,400 Climbing Miami Center
Sun 14:27:39 28.4256 -79.7650 45° Northeast 380 437 29,100 1,350 Climbing Miami Center
Sun 14:28:39 28.5047 -79.6725 46° Northeast 392 451 30,500 1,450 Climbing Miami Center
Sun 14:29:39 28.5836 -79.5797 46° Northeast 403 464 32,000 1,750 Climbing Miami Center
Sun 14:30:39 28.6625 -79.4919 44° Northeast 403 464 34,000 1,500 Climbing Miami Center
Sun 14:31:39 28.7392 -79.4061 44° Northeast 387 445 35,000 1,000 Climbing Miami Center
Sun 14:32:39 28.8181 -79.3156 45° Northeast 387 445 36,000 1,250 Climbing Miami Center
Sun 14:33:39 28.8925 -79.2247 47° Northeast 387 445 37,500 1,350 Climbing Miami Center
Sun 14:34:39 28.9711 -79.1386 44° Northeast 387 445 38,700 750 Climbing Miami Center
Sun 14:35:39 29.0458 -79.0453 48° Northeast 392 451 39,000 150 Climbing Miami Center
Sun 14:36:39 29.1347 -78.9519 43° Northeast 402 463 39,000  Level Miami Center
Sun 14:37:39 29.2197 -78.8514 46° Northeast 420 483 39,000  Level Miami Center
Sun 14:38:39 29.3044 -78.7433 48° Northeast 435 501 39,000  Level Miami Center
Sun 14:41:08 29.5772 -78.6231 21° North 422 486 39,000  Level Jacksonville Center
Sun 14:42:08 29.6928 -78.5869 15° North 427 491 39,000  Level Jacksonville Center
Sun 14:43:09 29.8003 -78.5511 16° North 435 501 39,000  Level Jacksonville Center
Sun 14:44:08 29.9200 -78.5147 15° North 435 501 39,000  Level Jacksonville Center
Sun 14:45:08 30.0333 -78.4736 17° North 429 494 39,000  Level Jacksonville Center
Sun 14:46:08 30.1511 -78.4344 16° North 429 494 39,000  Level Jacksonville Center
Sun 14:47:08 30.2772 -78.4000 13° North 429 494 39,000  Level Jacksonville Center
Sun 14:48:08 30.3967 -78.3606 16° North 429 494 39,000  Level Jacksonville Center
Sun 14:49:08 30.5164 -78.3236 15° North 434 499 39,000  Level Jacksonville Center
Sun 14:50:08 30.6339 -78.2817 17° North 439 505 39,000  Level Jacksonville Center
Sun 14:51:08 30.7578 -78.2419 15° North 443 510 39,000  Level Jacksonville Center
Sun 14:52:08 30.8817 -78.2042 15° North 443 510 39,000  Level Jacksonville Center
Sun 14:53:08 30.9928 -78.1647 17° North 443 510 39,000  Level Jacksonville Center
Sun 14:54:08 31.1164 -78.1197 17° North 443 510 39,000  Level Jacksonville Center
Sun 14:55:08 31.2336 -78.0750 18° North 443 510 39,000  Level Jacksonville Center
Sun 14:56:08 31.3533 -78.0372 15° North 443 510 39,000  Level Jacksonville Center
Sun 14:57:08 31.4772 -77.9992 15° North 448 516 39,000  Level Jacksonville Center
Sun 14:58:08 31.5964 -77.9561 17° North 448 516 39,000  Level Jacksonville Center
Sun 14:59:08 31.7183 -77.9228 13° North 448 516 39,000  Level Jacksonville Center
Sun 15:00:08 31.8419 -77.8794 17° North 448 516 39,000 350 Level Jacksonville Center
Sun 15:01:08 31.9614 -77.8389 16° North 448 516 39,700 900 Climbing Jacksonville Center
Sun 15:02:08 32.0767 -77.8006 16° North 448 516 40,800 650 Climbing Jacksonville Center
Sun 15:03:08 32.1961 -77.7572 17° North 443 510 41,000 100 Climbing Jacksonville Center
Sun 15:04:08 32.3156 -77.7186 15° North 443 510 41,000  Level Jacksonville Center
Sun 15:05:08 32.4350 -77.6797 15° North 443 510 41,000  Level Jacksonville Center
Sun 15:06:08 32.5583 -77.6356 17° North 448 516 41,000  Level Jacksonville Center
Sun 15:07:08 32.6797 -77.5964 15° North 448 516 41,000  Level Jacksonville Center
Sun 15:08:08 32.8033 -77.5547 16° North 448 516 41,000  Level Jacksonville Center
Sun 15:10:29 33.0767 -77.4600 16° North 460 529 41,000  Level Washington Center
Sun 15:11:29 33.2006 -77.4156 17° North 460 529 41,000  Level Washington Center
Sun 15:12:29 33.3242 -77.3736 16° North 460 529 41,000  Level Washington Center
Sun 15:13:29 33.4478 -77.3289 17° North 460 529 41,000  Level Washington Center
Sun 15:14:29 33.5758 -77.2867 15° North 460 529 41,000  Level Washington Center
Sun 15:15:29 33.6972 -77.2442 16° North 466 536 41,000  Level Washington Center
Sun 15:16:29 33.8208 -77.2017 16° North 461 531 41,000  Level Washington Center
Sun 15:17:29 33.9592 -77.1519 17° North 461 531 41,000  Level Washington Center
Sun 15:18:29 34.0808 -77.1089 16° North 461 531 41,000  Level Washington Center
Sun 15:19:29 34.2044 -77.0661 16° North 461 531 41,000  Level Washington Center
Sun 15:20:29 34.3303 -77.0231 16° North 461 531 41,000  Level Washington Center
Sun 15:21:29 34.4517 -76.9747 18° North 461 531 41,000  Level Washington Center
Sun 15:22:29 34.5753 -76.9339 15° North 461 531 41,000  Level Washington Center
Sun 15:23:29 34.6967 -76.8906 16° North 461 531 41,000  Level Washington Center
Sun 15:24:29 34.8203 -76.8469 16° North 461 531 41,000  Level Washington Center
Sun 15:25:29 34.9439 -76.8033 16° North 461 531 41,000  Level Washington Center
Sun 15:26:29 35.0653 -76.7569 17° North 461 531 41,000  Level Washington Center
Sun 15:27:29 35.1783 -76.7153 17° North 461 531 41,000  Level Washington Center
Sun 15:28:29 35.3000 -76.6686 17° North 456 525 41,000  Level Washington Center
Sun 15:29:29 35.4339 -76.6219 16° North 461 531 41,000  Level Washington Center
Sun 15:30:29 35.5553 -76.5750 17° North 461 531 41,000  Level Washington Center
Sun 15:31:29 35.6808 -76.5331 15° North 461 531 41,000  Level Washington Center
Sun 15:32:29 35.8064 -76.4858 17° North 461 531 41,000  Level Washington Center
Sun 15:33:29 35.9278 -76.4386 17° North 461 531 41,000  Level Washington Center
Sun 15:34:29 36.0533 -76.3911 17° North 461 531 41,000  Level Washington Center
Sun 15:35:29 36.1808 -76.3461 16° North 461 531 41,000  Level Washington Center
Sun 15:36:29 36.3042 -76.3008 16° North 461 531 41,000  Level Washington Center
Sun 15:37:29 36.4297 -76.2528 17° North 461 531 41,000  Level Washington Center
Sun 15:38:29 36.5572 -76.2075 16° North 461 531 41,000  Level Washington Center
Sun 15:39:29 36.6806 -76.1617 17° North 461 531 41,000  Level Washington Center
Sun 15:40:29 36.7933 -76.1133 19° North 461 531 41,000  Level Washington Center
Sun 15:41:29 36.9186 -76.0672 16° North 461 531 41,000  Level Washington Center
Sun 15:42:29 37.0608 -76.0161 16° North 474 545 41,000  Level Washington Center
Sun 15:43:29 37.1861 -75.9700 16° North 474 545 41,000  Level Washington Center
Sun 15:44:29 37.3133 -75.9208 17° North 474 545 41,000  Level Washington Center
Sun 15:45:29 37.4367 -75.8744 17° North 474 545 41,000  Level Washington Center
Sun 15:46:29 37.5639 -75.8225 18° North 474 545 41,000  Level Washington Center
Sun 15:47:29 37.6892 -75.7728 17° North 474 545 41,000  Level Washington Center
Sun 15:48:29 37.8164 -75.7258 16° North 474 545 41,000  Level Washington Center
Sun 15:49:29 37.9417 -75.6761 17° North 474 545 41,000  Level Washington Center
Sun 15:50:29 38.0647 -75.6208 19° North 474 545 41,000  Level Washington Center
Sun 15:51:29 38.1919 -75.5733 16° North 474 545 41,000  Level Washington Center
Sun 15:52:29 38.2942 -75.5308 18° North 474 545 41,000  Level Washington Center
Sun 15:53:29 38.4336 -75.4778 17° North 474 545 41,000  Level Washington Center
Sun 15:54:29 38.5608 -75.4192 20° North 479 551 41,000  Level Washington Center
Sun 15:55:29 38.6900 -75.3708 16° North 479 551 41,000  Level Washington Center
Sun 15:56:29 38.8169 -75.3200 17° North 479 551 41,000 -450 Level Washington Center
Sun 15:57:29 38.9356 -75.2394 28° Northeast 479 551 40,100 -1,150 Descending Washington Center
Sun 15:58:29 39.0458 -75.1400 35° Northeast 479 551 38,700 -1,450 Descending Washington Center
Sun 15:59:29 39.1600 -75.0347 36° Northeast 489 563 37,200 -850 Descending Washington Center
Sun 16:00:29 39.2761 -74.9319 34° Northeast 495 570 37,000 -100 Descending Washington Center
Sun 16:01:29 39.3903 -74.8289 35° Northeast 495 570 37,000  Level Washington Center
Sun 16:02:29 39.5019 -74.7228 36° Northeast 495 570 37,000  Level Washington Center
Sun 16:03:29 39.6158 -74.6192 35° Northeast 495 570 37,000  Level Washington Center
Sun 16:04:29 39.7275 -74.5150 36° Northeast 500 575 37,000  Level Washington Center
Sun 16:06:18 39.9186 -74.3164 39° Northeast 496 571 37,000 -467 Level New Center
Sun 16:07:16 40.0222 -74.1969 41° Northeast 490 564 35,700 -1,563 Descending New Center
Sun 16:08:17 40.1258 -74.0744 42° Northeast 495 570 33,900 -1,412 Descending New Center
Sun 16:09:15 40.2331 -73.9575 40° Northeast 500 575 32,900 -864 Descending New Center
Sun 16:10:15 40.3364 -73.8369 42° Northeast 500 575 32,200 -1,821 Descending New Center
Sun 16:12:03 40.5228 -73.6167 42° Northeast 499 574 27,800 -2,429 Descending Boston Center
Sun 16:13:03 40.6178 -73.5117 40° Northeast 499 574 25,400 -2,400 Descending Boston Center
Sun 16:14:03 40.7336 -73.3658 44° Northeast 492 566 23,000 -1,200 Descending Boston Center
Sun 16:15:03 40.8344 -73.2547 40° Northeast 479 551 23,000 -250 Level Boston Center
Sun 16:16:03 40.9311 -73.1489 40° Northeast 467 537 22,500 -1,250 Descending Boston Center
Sun 16:17:03 41.0233 -73.0369 42° Northeast 455 524 20,500 -2,050 Descending Boston Center
Sun 16:18:03 41.1136 -72.9306 42° Northeast 443 510 18,400 -1,800 Descending Boston Center
Sun 16:19:03 41.1994 -72.8319 41° Northeast 426 490 16,900 -1,650 Descending Boston Center
Sun 16:20:03 41.2725 -72.7439 42° Northeast 405 466 15,100 -1,800 Descending Boston Center
Sun 16:21:03 41.3686 -72.6697 30° Northeast 366 421 13,300 -1,000 Descending Boston Center
Sun 16:22:03 41.4542 -72.6339 17° North 351 404 13,100 -150 Descending Boston Center
Sun 16:23:03 41.5561 -72.5872 19° North 346 398 13,000  Descending Boston Center
Sun 16:24:03 41.6314 -72.5150 36° Northeast 346 398 13,100 50 Climbing Boston Center
Sun 16:25:03 41.7169 -72.4233 39° Northeast 358 412 13,100 -650 Level Boston Center
Sun 16:26:03 41.7981 -72.3456 36° Northeast 363 418 11,800 -1,050 Descending Boston Center
Sun 16:27:03 41.8750 -72.2644 38° Northeast 352 405 11,000 -560 Descending Boston Center
Sun 16:27:18 41.8917 -72.2506 32° Northeast 340 391 11,100 -800 Climbing Boston Center
Sun 16:28:03 41.9478 -72.1917 38° Northeast 338 389 10,200 -896 Descending Boston Center
Sun 16:28:25 41.9728 -72.1664 37° Northeast 335 386 10,100 -400 Descending Boston Center
Sun 16:29:03 42.0186 -72.1186 38° Northeast 326 375 9,800 -889 Descending Boston Center
Sun 16:29:19 42.0331 -72.0992 45° Northeast 296 341 9,300 -1,600 Descending Boston Center
Sun 16:30:03 42.0767 -72.0569 36° Northeast 283 326 8,200 -1,452 Descending Boston Center
Sun 16:30:21 42.0933 -72.0400 37° Northeast 266 306 7,800 -1,400 Descending Boston Center
Sun 16:31:03 42.1328 -71.9978 38° Northeast 261 300 6,800 -1,600 Descending Boston Center
Sun 16:31:21 42.1514 -71.9808 34° Northeast 254 292 6,200 -1,600 Descending Boston Center
Sun 16:32:03 42.1867 -71.9358 43° Northeast 251 289 5,200 -1,000 Descending Boston Center
Sun 16:33:03 42.2197 -71.8625 59° Northeast 256 295 4,500 -550 Descending Boston Center
Sun 16:34:03 42.2547 -71.7808 60° Northeast 231 266 4,100 -200 Descending Boston Center
Sun 16:35:03 42.2875 -71.7106 58° Northeast 231 266 4,100 -50 Level Boston Center
Sun 16:36:03 42.3414 -71.6481 41° Northeast 236 272 4,000  Descending Boston Center
Sun 16:37:03 42.3889 -71.5967 39° Northeast 236 272 4,100 -466 Climbing Boston Center
Sun 16:37:59 42.4500 -71.5333 37° Northeast 236 272 3,100 -517 Descending KA90
Sun 16:38:59 42.4833 -71.4833 48° Northeast 227 261 3,100 -100 Level KA90
Sun 16:39:59 42.5000 -71.4000 75° East 223 257 2,900 -353 Descending KA90
Sun 16:40:58 42.5000 -71.3167 90° East 215 247 2,400 -403 Descending KA90
Sun 16:41:58 42.5167 -71.2500 71° East 182 209 2,100 -397 Descending KA90
Sun 16:42:59 42.4833 -71.2167 144° Southeast 141 162 1,600 -744 Descending KA90
Sun 16:43:59 42.4667 -71.2500 236° Southwest 135 155 600 -1,000 Descending KA90

Login

Don't have an account? Register now (free) for customized features, flight alerts, and more!